Flight Track Log - Related Links

Times and Time Zones

All times are in EDT time to prevent confusion due to time zone crossing. See the SKW6334 flight status page for this flight to view local times or setup timezone preferences in your user account.

Time Position Orientation Groundspeed Altitude Reporting Facility
EDT Latitude Longitude Course Direction KTS MPH feet Rate Location/Type
Sun 08:33:27 PM 41.5542 -93.6711 321° Northwest 157 181 1,600  Level Minneapolis Center
Sun 08:34:28 PM 41.5939 -93.7147 321° Northwest 185 213 3,500 1,837 Climbing Minneapolis Center
Sun 08:35:05 PM 41.6097 -93.6822 57° Northeast 248 285 4,600 2,500 Climbing Minneapolis Center
Sun 08:35:28 PM 41.6169 -93.6344 79° East 268 308 6,000 3,246 Climbing Minneapolis Center
Sun 08:36:06 PM 41.6100 -93.5781 99° East 278 320 7,900 2,880 Climbing Minneapolis Center
Sun 08:37:08 PM 41.6356 -93.4783 71° East 285 328 10,800 2,371 Climbing Minneapolis Center
Sun 08:38:10 PM 41.6667 -93.3736 68° East 299 344 12,800 2,049 Climbing Minneapolis Center
Sun 08:39:11 PM 41.7022 -93.2497 69° East 328 377 15,000 2,000 Climbing Minneapolis Center
Sun 08:40:13 PM 41.7367 -93.1297 69° East 344 396 16,900 1,597 Climbing Minneapolis Center
Sun 08:41:15 PM 41.7706 -93.0144 68° East 350 403 18,300 1,366 Climbing Minneapolis Center
Sun 08:42:16 PM 41.8067 -92.8872 69° East 359 413 19,700 1,220 Climbing Minneapolis Center
Sun 08:43:18 PM 41.8447 -92.7586 68° East 372 428 20,800 1,232 Climbing Minneapolis Center
Sun 08:44:08 PM 41.8822 -92.6231 70° East 385 443 22,000 1,286 Climbing Chicago Center
Sun 08:45:10 PM 41.9194 -92.4881 70° East 390 449 23,200 1,161 Climbing Chicago Center
Sun 08:46:12 PM 41.9575 -92.3525 69° East 394 453 24,400 1,306 Climbing Chicago Center
Sun 08:47:14 PM 41.9967 -92.2189 68° East 392 451 25,900 1,258 Climbing Chicago Center
Sun 08:48:16 PM 42.0442 -92.1039 61° Northeast 361 415 27,000 532 Climbing Chicago Center
Sun 08:49:18 PM 42.1000 -91.9678 61° Northeast 352 405 27,000  Level Chicago Center
Sun 08:50:20 PM 42.1458 -91.8589 60° Northeast 342 394 27,000  Level Chicago Center
Sun 08:51:22 PM 42.1906 -91.7481 61° Northeast 341 392 27,000  Level Chicago Center
Sun 08:52:24 PM 42.2336 -91.6361 63° Northeast 341 392 27,000  Level Chicago Center
Sun 08:53:27 PM 42.2856 -91.5022 62° Northeast 340 391 27,000  Level Chicago Center
Sun 08:54:29 PM 42.3289 -91.3886 63° Northeast 344 396 27,000  Level Chicago Center
Sun 08:55:31 PM 42.3519 -91.2567 77° East 383 441 27,000  Level Chicago Center
Sun 08:56:33 PM 42.3639 -91.1078 84° East 403 464 27,000  Level Chicago Center
Sun 08:57:35 PM 42.3792 -90.9514 82° East 422 486 27,000  Level Chicago Center
Sun 08:58:37 PM 42.3969 -90.7564 83° East 440 506 27,000 -48 Level Chicago Center
Sun 08:59:39 PM 42.4133 -90.5906 82° East 449 517 26,900 -339 Descending Chicago Center
Sun 09:00:41 PM 42.4308 -90.4267 82° East 446 513 26,300 -581 Descending Chicago Center
Sun 09:01:43 PM 42.4489 -90.2667 81° East 439 505 25,700 -629 Descending Chicago Center
Sun 09:02:45 PM 42.4636 -90.0950 83° East 392 451 25,000 -629 Descending Chicago Center
Sun 09:03:47 PM 42.4778 -89.9497 82° East 392 451 24,400 -823 Descending Chicago Center
Sun 09:04:49 PM 42.4922 -89.8100 82° East 396 456 23,300 -1,355 Descending Chicago Center
Sun 09:05:51 PM 42.5083 -89.6358 83° East 396 456 21,600 -1,548 Descending Chicago Center
Sun 09:06:53 PM 42.5222 -89.4964 82° East 379 436 20,100 -1,210 Descending Chicago Center
Sun 09:07:55 PM 42.5350 -89.3556 83° East 377 434 19,100 -1,056 Descending Chicago Center
Sun 09:08:58 PM 42.5483 -89.2150 83° East 375 432 17,900 -1,200 Descending Chicago Center
Sun 09:10:00 PM 42.5472 -89.0739 91° East 385 443 16,600 -1,500 Descending Chicago Center
Sun 09:11:02 PM 42.5036 -88.9289 112° Southeast 367 422 14,800 -1,694 Descending Chicago Center
Sun 09:12:04 PM 42.4661 -88.8019 112° Southeast 364 419 13,100 -1,645 Descending Chicago Center
Sun 09:13:06 PM 42.4286 -88.6783 112° Southeast 360 414 11,400 -1,597 Descending Chicago Center
Sun 09:14:08 PM 42.3947 -88.5631 112° Southeast 341 392 9,800 -1,161 Descending Chicago Center
Sun 09:15:10 PM 42.3647 -88.4628 112° Southeast 307 353 9,000 -435 Descending Chicago Center
Sun 09:16:12 PM 42.3144 -88.3747 128° Southeast 296 341 8,900 -537 Descending Chicago Center
Sun 09:17:13 PM 42.2381 -88.3678 176° South 277 319 7,900 -927 Descending Chicago Center
Sun 09:18:15 PM 42.1425 -88.3567 175° South 286 329 7,000 -677 Descending Chicago Center
Sun 09:19:17 PM 42.0639 -88.3458 174° South 286 329 6,500 -677 Descending Chicago Center
Sun 09:20:19 PM 41.9950 -88.3261 168° South 261 300 5,600 -919 Descending Chicago Center
Sun 09:21:21 PM 41.9694 -88.2381 111° Southeast 244 281 4,600 -774 Descending Chicago Center
Sun 09:22:23 PM 41.9681 -88.1503 91° East 238 274 4,000 -581 Descending Chicago Center

Login

Don't have an account? Register now (free) for customized features, flight alerts, and more!